sensor_id;sensor_type;location;lat;lon;timestamp;P1;durP1;ratioP1;P2;durP2;ratioP2
14021;SDS011;7086;48.116;11.580;2023-02-11T00:01:47;13.63;;;10.80;;
14021;SDS011;7086;48.116;11.580;2023-02-11T00:04:29;17.02;;;11.02;;
14021;SDS011;7086;48.116;11.580;2023-02-11T00:07:05;12.57;;;10.52;;
14021;SDS011;7086;48.116;11.580;2023-02-11T00:09:35;13.98;;;10.27;;
14021;SDS011;7086;48.116;11.580;2023-02-11T00:12:04;12.32;;;9.90;;
14021;SDS011;7086;48.116;11.580;2023-02-11T00:14:33;11.57;;;10.13;;
14021;SDS011;7086;48.116;11.580;2023-02-11T00:17:01;10.93;;;9.60;;
14021;SDS011;7086;48.116;11.580;2023-02-11T00:19:29;10.68;;;9.48;;
14021;SDS011;7086;48.116;11.580;2023-02-11T00:21:58;12.20;;;9.98;;
14021;SDS011;7086;48.116;11.580;2023-02-11T00:24:30;13.73;;;11.18;;
14021;SDS011;7086;48.116;11.580;2023-02-11T00:27:12;14.38;;;10.00;;
14021;SDS011;7086;48.116;11.580;2023-02-11T00:29:44;13.57;;;11.05;;
14021;SDS011;7086;48.116;11.580;2023-02-11T00:32:36;14.05;;;10.45;;
14021;SDS011;7086;48.116;11.580;2023-02-11T00:35:22;12.27;;;10.43;;
14021;SDS011;7086;48.116;11.580;2023-02-11T00:45:45;14.02;;;10.25;;
14021;SDS011;7086;48.116;11.580;2023-02-11T00:49:08;15.85;;;10.77;;
14021;SDS011;7086;48.116;11.580;2023-02-11T00:55:16;21.58;;;11.35;;
14021;SDS011;7086;48.116;11.580;2023-02-11T00:57:56;16.83;;;11.27;;
14021;SDS011;7086;48.116;11.580;2023-02-11T01:00:30;15.18;;;10.35;;
14021;SDS011;7086;48.116;11.580;2023-02-11T01:03:11;13.93;;;9.93;;
14021;SDS011;7086;48.116;11.580;2023-02-11T01:05:43;12.27;;;10.32;;
14021;SDS011;7086;48.116;11.580;2023-02-11T01:08:11;16.70;;;11.13;;
14021;SDS011;7086;48.116;11.580;2023-02-11T01:10:48;14.23;;;10.73;;
14021;SDS011;7086;48.116;11.580;2023-02-11T01:13:33;12.45;;;9.82;;
14021;SDS011;7086;48.116;11.580;2023-02-11T01:16:26;15.18;;;10.00;;
14021;SDS011;7086;48.116;11.580;2023-02-11T01:18:57;14.88;;;10.68;;
14021;SDS011;7086;48.116;11.580;2023-02-11T01:21:42;11.77;;;9.95;;
14021;SDS011;7086;48.116;11.580;2023-02-11T01:24:46;10.52;;;9.20;;
14021;SDS011;7086;48.116;11.580;2023-02-11T01:27:31;11.45;;;9.30;;
14021;SDS011;7086;48.116;11.580;2023-02-11T01:30:11;11.15;;;10.05;;
14021;SDS011;7086;48.116;11.580;2023-02-11T01:32:49;12.48;;;9.68;;
14021;SDS011;7086;48.116;11.580;2023-02-11T01:35:36;13.07;;;9.77;;
14021;SDS011;7086;48.116;11.580;2023-02-11T01:38:15;12.77;;;10.90;;
14021;SDS011;7086;48.116;11.580;2023-02-11T01:40:50;12.60;;;9.93;;
14021;SDS011;7086;48.116;11.580;2023-02-11T01:43:38;10.98;;;9.23;;
14021;SDS011;7086;48.116;11.580;2023-02-11T01:49:26;9.60;;;8.57;;
14021;SDS011;7086;48.116;11.580;2023-02-11T01:52:04;10.07;;;9.02;;
14021;SDS011;7086;48.116;11.580;2023-02-11T01:54:44;10.90;;;8.57;;
14021;SDS011;7086;48.116;11.580;2023-02-11T01:57:34;11.70;;;9.13;;
14021;SDS011;7086;48.116;11.580;2023-02-11T02:00:09;10.88;;;8.88;;
14021;SDS011;7086;48.116;11.580;2023-02-11T02:03:01;10.98;;;9.55;;
14021;SDS011;7086;48.116;11.580;2023-02-11T02:05:45;12.98;;;9.40;;
14021;SDS011;7086;48.116;11.580;2023-02-11T02:08:59;9.52;;;8.70;;
14021;SDS011;7086;48.116;11.580;2023-02-11T02:12:35;12.35;;;9.00;;
14021;SDS011;7086;48.116;11.580;2023-02-11T02:15:31;15.50;;;10.32;;
14021;SDS011;7086;48.116;11.580;2023-02-11T02:18:35;13.95;;;9.65;;
14021;SDS011;7086;48.116;11.580;2023-02-11T02:25:09;10.07;;;7.85;;
14021;SDS011;7086;48.116;11.580;2023-02-11T02:28:13;11.93;;;9.10;;
14021;SDS011;7086;48.116;11.580;2023-02-11T02:31:25;10.38;;;8.68;;
14021;SDS011;7086;48.116;11.580;2023-02-11T02:34:39;10.63;;;8.88;;
14021;SDS011;7086;48.116;11.580;2023-02-11T02:37:14;9.63;;;8.45;;
14021;SDS011;7086;48.116;11.580;2023-02-11T02:39:53;13.32;;;9.75;;
14021;SDS011;7086;48.116;11.580;2023-02-11T02:42:25;12.68;;;9.43;;
14021;SDS011;7086;48.116;11.580;2023-02-11T02:44:54;11.43;;;8.50;;
14021;SDS011;7086;48.116;11.580;2023-02-11T02:47:22;9.95;;;8.43;;
14021;SDS011;7086;48.116;11.580;2023-02-11T02:49:58;9.57;;;8.68;;
14021;SDS011;7086;48.116;11.580;2023-02-11T02:52:29;9.55;;;8.32;;
14021;SDS011;7086;48.116;11.580;2023-02-11T03:01:34;9.45;;;7.72;;
14021;SDS011;7086;48.116;11.580;2023-02-11T03:04:16;9.50;;;8.50;;
14021;SDS011;7086;48.116;11.580;2023-02-11T03:06:56;9.23;;;8.23;;
14021;SDS011;7086;48.116;11.580;2023-02-11T03:09:33;8.60;;;7.70;;
14021;SDS011;7086;48.116;11.580;2023-02-11T03:12:08;8.70;;;6.80;;
14021;SDS011;7086;48.116;11.580;2023-02-11T03:14:39;8.02;;;7.15;;
14021;SDS011;7086;48.116;11.580;2023-02-11T03:17:08;10.77;;;7.72;;
14021;SDS011;7086;48.116;11.580;2023-02-11T03:19:37;8.68;;;7.00;;
14021;SDS011;7086;48.116;11.580;2023-02-11T03:22:15;8.77;;;7.07;;
14021;SDS011;7086;48.116;11.580;2023-02-11T03:24:51;8.93;;;7.10;;
14021;SDS011;7086;48.116;11.580;2023-02-11T03:27:35;8.15;;;7.10;;
14021;SDS011;7086;48.116;11.580;2023-02-11T03:30:25;8.77;;;7.15;;
14021;SDS011;7086;48.116;11.580;2023-02-11T03:33:08;7.60;;;6.43;;
14021;SDS011;7086;48.116;11.580;2023-02-11T03:36:03;8.63;;;6.88;;
14021;SDS011;7086;48.116;11.580;2023-02-11T03:38:49;7.53;;;6.38;;
14021;SDS011;7086;48.116;11.580;2023-02-11T03:41:28;9.73;;;6.82;;
14021;SDS011;7086;48.116;11.580;2023-02-11T03:44:10;6.82;;;6.22;;
14021;SDS011;7086;48.116;11.580;2023-02-11T03:46:49;6.97;;;6.38;;
14021;SDS011;7086;48.116;11.580;2023-02-11T03:49:25;6.43;;;5.82;;
14021;SDS011;7086;48.116;11.580;2023-02-11T03:51:57;6.90;;;6.28;;
14021;SDS011;7086;48.116;11.580;2023-02-11T03:57:07;7.68;;;5.55;;
14021;SDS011;7086;48.116;11.580;2023-02-11T03:59:49;6.72;;;6.13;;
14021;SDS011;7086;48.116;11.580;2023-02-11T04:02:34;6.97;;;6.22;;
14021;SDS011;7086;48.116;11.580;2023-02-11T04:05:45;8.63;;;6.60;;
14021;SDS011;7086;48.116;11.580;2023-02-11T04:08:54;8.13;;;7.13;;
14021;SDS011;7086;48.116;11.580;2023-02-11T04:11:31;7.72;;;6.43;;
14021;SDS011;7086;48.116;11.580;2023-02-11T04:14:03;7.88;;;6.75;;
14021;SDS011;7086;48.116;11.580;2023-02-11T04:16:34;6.88;;;6.03;;
14021;SDS011;7086;48.116;11.580;2023-02-11T04:19:03;7.53;;;6.57;;
14021;SDS011;7086;48.116;11.580;2023-02-11T04:21:34;7.18;;;6.47;;
14021;SDS011;7086;48.116;11.580;2023-02-11T04:24:15;5.40;;;4.93;;
14021;SDS011;7086;48.116;11.580;2023-02-11T04:26:46;7.70;;;6.28;;
14021;SDS011;7086;48.116;11.580;2023-02-11T04:29:20;6.95;;;5.78;;
14021;SDS011;7086;48.116;11.580;2023-02-11T04:31:58;6.80;;;5.25;;
14021;SDS011;7086;48.116;11.580;2023-02-11T04:34:38;7.95;;;6.28;;
14021;SDS011;7086;48.116;11.580;2023-02-11T04:37:06;7.57;;;6.68;;
14021;SDS011;7086;48.116;11.580;2023-02-11T04:39:35;6.53;;;5.88;;
14021;SDS011;7086;48.116;11.580;2023-02-11T04:42:03;6.20;;;5.60;;
14021;SDS011;7086;48.116;11.580;2023-02-11T04:44:38;5.78;;;4.95;;
14021;SDS011;7086;48.116;11.580;2023-02-11T04:47:06;6.93;;;6.20;;
14021;SDS011;7086;48.116;11.580;2023-02-11T04:49:34;6.40;;;5.85;;
14021;SDS011;7086;48.116;11.580;2023-02-11T04:52:02;6.55;;;5.90;;
14021;SDS011;7086;48.116;11.580;2023-02-11T04:54:29;9.30;;;6.97;;
14021;SDS011;7086;48.116;11.580;2023-02-11T04:56:57;6.80;;;6.03;;
14021;SDS011;7086;48.116;11.580;2023-02-11T04:59:25;6.50;;;5.55;;
14021;SDS011;7086;48.116;11.580;2023-02-11T05:01:55;9.32;;;6.93;;
14021;SDS011;7086;48.116;11.580;2023-02-11T05:04:30;6.53;;;5.70;;
14021;SDS011;7086;48.116;11.580;2023-02-11T05:07:44;9.68;;;6.07;;
14021;SDS011;7086;48.116;11.580;2023-02-11T05:24:15;6.78;;;6.13;;
14021;SDS011;7086;48.116;11.580;2023-02-11T05:26:47;9.02;;;5.53;;
14021;SDS011;7086;48.116;11.580;2023-02-11T05:29:16;8.40;;;6.15;;
14021;SDS011;7086;48.116;11.580;2023-02-11T05:31:44;5.60;;;5.10;;
14021;SDS011;7086;48.116;11.580;2023-02-11T05:34:25;6.70;;;5.65;;
14021;SDS011;7086;48.116;11.580;2023-02-11T05:36:55;7.15;;;6.35;;
14021;SDS011;7086;48.116;11.580;2023-02-11T05:39:23;6.57;;;5.88;;
14021;SDS011;7086;48.116;11.580;2023-02-11T05:41:52;6.22;;;5.63;;
14021;SDS011;7086;48.116;11.580;2023-02-11T05:44:33;6.93;;;6.30;;
14021;SDS011;7086;48.116;11.580;2023-02-11T05:47:02;7.13;;;5.70;;
14021;SDS011;7086;48.116;11.580;2023-02-11T05:49:32;6.90;;;6.03;;
14021;SDS011;7086;48.116;11.580;2023-02-11T05:52:02;7.68;;;6.13;;
14021;SDS011;7086;48.116;11.580;2023-02-11T05:54:30;6.07;;;5.30;;
14021;SDS011;7086;48.116;11.580;2023-02-11T05:56:57;7.25;;;5.75;;
14021;SDS011;7086;48.116;11.580;2023-02-11T05:59:25;5.78;;;5.22;;
14021;SDS011;7086;48.116;11.580;2023-02-11T06:01:53;6.45;;;5.63;;
14021;SDS011;7086;48.116;11.580;2023-02-11T06:04:20;5.95;;;5.35;;
14021;SDS011;7086;48.116;11.580;2023-02-11T06:06:49;11.88;;;5.65;;
14021;SDS011;7086;48.116;11.580;2023-02-11T06:09:20;5.53;;;5.03;;
14021;SDS011;7086;48.116;11.580;2023-02-11T06:11:48;5.32;;;4.68;;
14021;SDS011;7086;48.116;11.580;2023-02-11T06:14:16;7.05;;;5.35;;
14021;SDS011;7086;48.116;11.580;2023-02-11T06:16:47;5.20;;;4.75;;
14021;SDS011;7086;48.116;11.580;2023-02-11T06:19:15;5.10;;;4.63;;
14021;SDS011;7086;48.116;11.580;2023-02-11T06:21:43;8.27;;;5.40;;
14021;SDS011;7086;48.116;11.580;2023-02-11T06:24:23;9.35;;;5.72;;
14021;SDS011;7086;48.116;11.580;2023-02-11T06:27:04;5.55;;;5.03;;
14021;SDS011;7086;48.116;11.580;2023-02-11T06:29:46;6.07;;;4.85;;
14021;SDS011;7086;48.116;11.580;2023-02-11T06:35:04;5.10;;;4.60;;
14021;SDS011;7086;48.116;11.580;2023-02-11T06:37:47;6.43;;;5.35;;
14021;SDS011;7086;48.116;11.580;2023-02-11T06:43:43;5.93;;;5.00;;
14021;SDS011;7086;48.116;11.580;2023-02-11T06:46:25;5.47;;;5.07;;
14021;SDS011;7086;48.116;11.580;2023-02-11T06:49:06;5.80;;;5.30;;
14021;SDS011;7086;48.116;11.580;2023-02-11T06:51:45;5.97;;;5.30;;
14021;SDS011;7086;48.116;11.580;2023-02-11T06:54:18;6.88;;;5.03;;
14021;SDS011;7086;48.116;11.580;2023-02-11T06:57:22;5.82;;;5.28;;
14021;SDS011;7086;48.116;11.580;2023-02-11T07:00:04;10.55;;;5.25;;
14021;SDS011;7086;48.116;11.580;2023-02-11T07:02:48;4.85;;;4.50;;
14021;SDS011;7086;48.116;11.580;2023-02-11T07:05:29;5.65;;;4.75;;
14021;SDS011;7086;48.116;11.580;2023-02-11T07:08:10;5.53;;;5.03;;
14021;SDS011;7086;48.116;11.580;2023-02-11T07:10:38;6.38;;;5.72;;
14021;SDS011;7086;48.116;11.580;2023-02-11T07:13:08;5.93;;;5.40;;
14021;SDS011;7086;48.116;11.580;2023-02-11T07:15:39;4.78;;;4.38;;
14021;SDS011;7086;48.116;11.580;2023-02-11T07:18:07;7.60;;;4.80;;
14021;SDS011;7086;48.116;11.580;2023-02-11T07:20:35;6.82;;;4.82;;
14021;SDS011;7086;48.116;11.580;2023-02-11T07:23:06;6.15;;;4.93;;
14021;SDS011;7086;48.116;11.580;2023-02-11T07:25:35;4.15;;;3.85;;
14021;SDS011;7086;48.116;11.580;2023-02-11T07:28:08;5.28;;;4.38;;
14021;SDS011;7086;48.116;11.580;2023-02-11T07:30:54;5.40;;;4.90;;
14021;SDS011;7086;48.116;11.580;2023-02-11T07:33:27;5.85;;;4.63;;
14021;SDS011;7086;48.116;11.580;2023-02-11T07:36:01;6.40;;;4.93;;
14021;SDS011;7086;48.116;11.580;2023-02-11T07:38:38;5.80;;;5.25;;
14021;SDS011;7086;48.116;11.580;2023-02-11T07:41:28;5.78;;;5.00;;
14021;SDS011;7086;48.116;11.580;2023-02-11T07:44:03;8.68;;;5.18;;
14021;SDS011;7086;48.116;11.580;2023-02-11T07:46:37;9.68;;;4.60;;
14021;SDS011;7086;48.116;11.580;2023-02-11T07:49:09;12.48;;;6.53;;
14021;SDS011;7086;48.116;11.580;2023-02-11T07:51:41;6.40;;;5.35;;
14021;SDS011;7086;48.116;11.580;2023-02-11T07:54:10;11.50;;;7.32;;
14021;SDS011;7086;48.116;11.580;2023-02-11T07:56:41;7.90;;;6.50;;
14021;SDS011;7086;48.116;11.580;2023-02-11T07:59:16;8.25;;;5.47;;
14021;SDS011;7086;48.116;11.580;2023-02-11T08:02:00;5.65;;;5.07;;
14021;SDS011;7086;48.116;11.580;2023-02-11T08:04:44;6.32;;;5.55;;
14021;SDS011;7086;48.116;11.580;2023-02-11T08:07:15;7.97;;;5.85;;
14021;SDS011;7086;48.116;11.580;2023-02-11T08:09:45;7.72;;;5.22;;
14021;SDS011;7086;48.116;11.580;2023-02-11T08:15:09;7.85;;;5.15;;
14021;SDS011;7086;48.116;11.580;2023-02-11T08:17:45;7.93;;;6.22;;
14021;SDS011;7086;48.116;11.580;2023-02-11T08:20:35;10.05;;;6.85;;
14021;SDS011;7086;48.116;11.580;2023-02-11T08:24:13;7.93;;;5.88;;
14021;SDS011;7086;48.116;11.580;2023-02-11T08:26:58;9.40;;;6.00;;
14021;SDS011;7086;48.116;11.580;2023-02-11T08:29:31;18.70;;;6.63;;
14021;SDS011;7086;48.116;11.580;2023-02-11T08:39:15;5.70;;;5.13;;
14021;SDS011;7086;48.116;11.580;2023-02-11T08:42:00;10.25;;;5.05;;
14021;SDS011;7086;48.116;11.580;2023-02-11T08:44:52;10.88;;;5.78;;
14021;SDS011;7086;48.116;11.580;2023-02-11T08:47:45;6.57;;;5.68;;
14021;SDS011;7086;48.116;11.580;2023-02-11T08:50:37;6.00;;;5.40;;
14021;SDS011;7086;48.116;11.580;2023-02-11T08:53:20;8.68;;;5.30;;
14021;SDS011;7086;48.116;11.580;2023-02-11T09:16:27;9.15;;;6.25;;
14021;SDS011;7086;48.116;11.580;2023-02-11T09:21:51;9.38;;;6.35;;
14021;SDS011;7086;48.116;11.580;2023-02-11T09:24:35;9.48;;;5.70;;
14021;SDS011;7086;48.116;11.580;2023-02-11T11:00:48;11.73;;;8.55;;
14021;SDS011;7086;48.116;11.580;2023-02-11T11:03:44;9.48;;;7.15;;
14021;SDS011;7086;48.116;11.580;2023-02-11T11:06:29;6.88;;;6.15;;
14021;SDS011;7086;48.116;11.580;2023-02-11T11:09:01;12.05;;;6.63;;
14021;SDS011;7086;48.116;11.580;2023-02-11T11:11:49;7.55;;;5.90;;
14021;SDS011;7086;48.116;11.580;2023-02-11T11:14:32;9.73;;;6.57;;
14021;SDS011;7086;48.116;11.580;2023-02-11T11:20:57;7.07;;;6.18;;
14021;SDS011;7086;48.116;11.580;2023-02-11T11:23:46;6.95;;;6.25;;
14021;SDS011;7086;48.116;11.580;2023-02-11T11:26:43;10.38;;;6.70;;
14021;SDS011;7086;48.116;11.580;2023-02-11T11:29:43;13.48;;;6.40;;
14021;SDS011;7086;48.116;11.580;2023-02-11T11:32:21;6.47;;;5.88;;
14021;SDS011;7086;48.116;11.580;2023-02-11T11:36:24;11.65;;;6.65;;
14021;SDS011;7086;48.116;11.580;2023-02-11T12:26:10;7.75;;;5.60;;
14021;SDS011;7086;48.116;11.580;2023-02-11T12:29:54;6.38;;;5.78;;
14021;SDS011;7086;48.116;11.580;2023-02-11T12:32:45;9.00;;;7.40;;
14021;SDS011;7086;48.116;11.580;2023-02-11T12:35:28;8.07;;;6.03;;
14021;SDS011;7086;48.116;11.580;2023-02-11T12:38:31;9.40;;;6.25;;
14021;SDS011;7086;48.116;11.580;2023-02-11T12:41:44;8.15;;;6.07;;
14021;SDS011;7086;48.116;11.580;2023-02-11T12:45:32;8.93;;;6.70;;
14021;SDS011;7086;48.116;11.580;2023-02-11T12:48:44;8.25;;;5.63;;
14021;SDS011;7086;48.116;11.580;2023-02-11T12:52:07;6.57;;;5.63;;
14021;SDS011;7086;48.116;11.580;2023-02-11T12:55:34;7.80;;;6.05;;
14021;SDS011;7086;48.116;11.580;2023-02-11T13:01:24;6.50;;;5.90;;
14021;SDS011;7086;48.116;11.580;2023-02-11T13:04:18;8.07;;;6.43;;
14021;SDS011;7086;48.116;11.580;2023-02-11T13:32:07;7.70;;;5.97;;
14021;SDS011;7086;48.116;11.580;2023-02-11T13:34:55;9.40;;;6.47;;
14021;SDS011;7086;48.116;11.580;2023-02-11T13:37:48;7.57;;;6.18;;
14021;SDS011;7086;48.116;11.580;2023-02-11T13:41:25;8.25;;;6.32;;
14021;SDS011;7086;48.116;11.580;2023-02-11T14:09:39;6.50;;;5.40;;
14021;SDS011;7086;48.116;11.580;2023-02-11T14:12:31;6.65;;;5.32;;
14021;SDS011;7086;48.116;11.580;2023-02-11T14:15:56;9.48;;;5.70;;
14021;SDS011;7086;48.116;11.580;2023-02-11T14:21:21;5.50;;;5.00;;
14021;SDS011;7086;48.116;11.580;2023-02-11T14:56:00;10.07;;;7.28;;
14021;SDS011;7086;48.116;11.580;2023-02-11T14:58:51;12.50;;;9.13;;
14021;SDS011;7086;48.116;11.580;2023-02-11T15:01:40;11.35;;;7.88;;
14021;SDS011;7086;48.116;11.580;2023-02-11T15:04:34;8.50;;;6.57;;
14021;SDS011;7086;48.116;11.580;2023-02-11T15:07:51;10.18;;;7.78;;
14021;SDS011;7086;48.116;11.580;2023-02-11T15:49:52;10.38;;;9.05;;
14021;SDS011;7086;48.116;11.580;2023-02-11T15:53:52;14.63;;;10.45;;
14021;SDS011;7086;48.116;11.580;2023-02-11T15:56:58;9.48;;;8.13;;
14021;SDS011;7086;48.116;11.580;2023-02-11T16:09:20;11.93;;;9.48;;
14021;SDS011;7086;48.116;11.580;2023-02-11T16:13:00;12.43;;;9.73;;
14021;SDS011;7086;48.116;11.580;2023-02-11T16:28:34;13.43;;;9.95;;
14021;SDS011;7086;48.116;11.580;2023-02-11T16:31:15;16.55;;;12.15;;
14021;SDS011;7086;48.116;11.580;2023-02-11T16:34:09;19.08;;;14.05;;
14021;SDS011;7086;48.116;11.580;2023-02-11T16:38:01;15.65;;;12.52;;
14021;SDS011;7086;48.116;11.580;2023-02-11T16:40:53;16.10;;;11.20;;
14021;SDS011;7086;48.116;11.580;2023-02-11T16:47:31;13.95;;;10.02;;
14021;SDS011;7086;48.116;11.580;2023-02-11T16:50:22;17.02;;;10.43;;
14021;SDS011;7086;48.116;11.580;2023-02-11T16:53:03;12.85;;;8.98;;
14021;SDS011;7086;48.116;11.580;2023-02-11T16:55:56;14.43;;;10.63;;
14021;SDS011;7086;48.116;11.580;2023-02-11T16:58:51;15.13;;;10.40;;
14021;SDS011;7086;48.116;11.580;2023-02-11T17:01:34;17.17;;;11.05;;
14021;SDS011;7086;48.116;11.580;2023-02-11T17:04:18;16.70;;;10.75;;
14021;SDS011;7086;48.116;11.580;2023-02-11T17:07:01;19.75;;;12.50;;
14021;SDS011;7086;48.116;11.580;2023-02-11T17:09:33;17.20;;;11.38;;
14021;SDS011;7086;48.116;11.580;2023-02-11T17:12:35;17.00;;;12.13;;
14021;SDS011;7086;48.116;11.580;2023-02-11T17:23:02;18.20;;;11.75;;
14021;SDS011;7086;48.116;11.580;2023-02-11T17:26:00;20.10;;;12.00;;
14021;SDS011;7086;48.116;11.580;2023-02-11T17:29:30;15.13;;;11.52;;
14021;SDS011;7086;48.116;11.580;2023-02-11T17:32:25;19.35;;;11.13;;
14021;SDS011;7086;48.116;11.580;2023-02-11T17:42:04;18.65;;;12.38;;
14021;SDS011;7086;48.116;11.580;2023-02-11T17:45:16;18.17;;;13.20;;
14021;SDS011;7086;48.116;11.580;2023-02-11T17:48:25;17.63;;;12.52;;
14021;SDS011;7086;48.116;11.580;2023-02-11T17:51:23;22.23;;;14.93;;
14021;SDS011;7086;48.116;11.580;2023-02-11T18:11:48;23.42;;;12.05;;
14021;SDS011;7086;48.116;11.580;2023-02-11T18:14:32;14.82;;;11.32;;
14021;SDS011;7086;48.116;11.580;2023-02-11T18:17:33;13.90;;;11.43;;
14021;SDS011;7086;48.116;11.580;2023-02-11T18:20:16;15.57;;;11.40;;
14021;SDS011;7086;48.116;11.580;2023-02-11T18:22:57;13.07;;;9.50;;
14021;SDS011;7086;48.116;11.580;2023-02-11T18:25:38;17.80;;;11.98;;
14021;SDS011;7086;48.116;11.580;2023-02-11T19:58:34;21.80;;;15.32;;
14021;SDS011;7086;48.116;11.580;2023-02-11T20:06:24;21.50;;;14.40;;
14021;SDS011;7086;48.116;11.580;2023-02-11T20:10:28;22.92;;;15.63;;
14021;SDS011;7086;48.116;11.580;2023-02-11T20:41:21;63.92;;;39.63;;
14021;SDS011;7086;48.116;11.580;2023-02-11T20:44:47;25.75;;;17.85;;
14021;SDS011;7086;48.116;11.580;2023-02-11T21:18:40;27.80;;;15.45;;
14021;SDS011;7086;48.116;11.580;2023-02-11T21:21:27;23.02;;;16.45;;
14021;SDS011;7086;48.116;11.580;2023-02-11T21:24:29;24.50;;;14.95;;
14021;SDS011;7086;48.116;11.580;2023-02-11T21:27:00;22.13;;;14.93;;
14021;SDS011;7086;48.116;11.580;2023-02-11T21:29:29;24.23;;;15.93;;
14021;SDS011;7086;48.116;11.580;2023-02-11T21:32:33;23.80;;;15.75;;
14021;SDS011;7086;48.116;11.580;2023-02-11T21:38:17;19.85;;;15.02;;
14021;SDS011;7086;48.116;11.580;2023-02-11T21:40:53;19.67;;;14.40;;
14021;SDS011;7086;48.116;11.580;2023-02-11T21:43:24;19.67;;;14.75;;
14021;SDS011;7086;48.116;11.580;2023-02-11T21:49:20;25.13;;;16.60;;
14021;SDS011;7086;48.116;11.580;2023-02-11T21:52:14;23.85;;;15.40;;
14021;SDS011;7086;48.116;11.580;2023-02-11T21:55:03;23.10;;;15.32;;
14021;SDS011;7086;48.116;11.580;2023-02-11T21:58:11;25.25;;;15.43;;
14021;SDS011;7086;48.116;11.580;2023-02-11T22:01:15;19.08;;;13.52;;
14021;SDS011;7086;48.116;11.580;2023-02-11T22:04:31;21.90;;;15.05;;
14021;SDS011;7086;48.116;11.580;2023-02-11T22:14:27;20.85;;;13.35;;
14021;SDS011;7086;48.116;11.580;2023-02-11T22:17:29;21.80;;;13.48;;
14021;SDS011;7086;48.116;11.580;2023-02-11T22:20:33;22.63;;;15.45;;
14021;SDS011;7086;48.116;11.580;2023-02-11T22:53:36;46.75;;;28.17;;
14021;SDS011;7086;48.116;11.580;2023-02-11T22:56:05;28.77;;;19.52;;
14021;SDS011;7086;48.116;11.580;2023-02-11T22:59:00;27.48;;;16.65;;
14021;SDS011;7086;48.116;11.580;2023-02-11T23:01:45;21.70;;;14.93;;
14021;SDS011;7086;48.116;11.580;2023-02-11T23:04:19;23.52;;;14.00;;
14021;SDS011;7086;48.116;11.580;2023-02-11T23:07:14;20.08;;;13.23;;
14021;SDS011;7086;48.116;11.580;2023-02-11T23:25:10;20.50;;;12.43;;
14021;SDS011;7086;48.116;11.580;2023-02-11T23:28:31;17.45;;;13.02;;
14021;SDS011;7086;48.116;11.580;2023-02-11T23:31:57;22.15;;;11.63;;
14021;SDS011;7086;48.116;11.580;2023-02-11T23:38:43;14.25;;;12.38;;
14021;SDS011;7086;48.116;11.580;2023-02-11T23:42:20;17.05;;;13.48;;
14021;SDS011;7086;48.116;11.580;2023-02-11T23:45:02;26.17;;;14.13;;
14021;SDS011;7086;48.116;11.580;2023-02-11T23:48:07;20.83;;;13.43;;
14021;SDS011;7086;48.116;11.580;2023-02-11T23:51:04;15.20;;;12.30;;
14021;SDS011;7086;48.116;11.580;2023-02-11T23:53:35;16.40;;;12.70;;
14021;SDS011;7086;48.116;11.580;2023-02-11T23:56:05;16.45;;;12.60;;
14021;SDS011;7086;48.116;11.580;2023-02-11T23:58:39;15.25;;;12.38;;
